Time;durP1;ratioP1;P1;durP2;ratioP2;P2;SDS_P1;SDS_P2;PMS_P1;PMS_P2;Temp;Humidity;BMP_temperature;BMP_pressure;BME280_temperature;BME280_humidity;BME280_pressure;Samples;Min_cycle;Max_cycle;Signal;HPM_P1;HPM_P2
2023/04/15 00:02:19;;;;;;;10.60;8.07;;;;;;;10.79;100.00;99748.84;5096666;55;1141134;-75
2023/04/15 00:07:25;;;;;;;11.63;7.57;;;;;;;10.69;100.00;99751.98;5096203;56;1141122;-73
2023/04/15 00:12:31;;;;;;;10.20;7.73;;;;;;;10.66;100.00;99753.58;5116576;56;1141048;-75
2023/04/15 00:17:38;;;;;;;10.97;8.13;;;;;;;10.57;100.00;99749.94;5110504;55;1140993;-75
2023/04/15 00:22:44;;;;;;;11.27;7.53;;;;;;;10.52;100.00;99747.38;5182823;55;1140866;-73
2023/04/15 00:27:49;;;;;;;14.10;8.73;;;;;;;10.49;100.00;99751.61;5183455;55;1140862;-74
2023/04/15 00:32:56;;;;;;;16.20;9.00;;;;;;;10.48;100.00;99749.45;5203535;55;1140864;-75
2023/04/15 00:38:02;;;;;;;9.68;6.83;;;;;;;10.43;100.00;99741.09;5183033;55;1141032;-75
2023/04/15 00:43:07;;;;;;;10.23;8.40;;;;;;;10.40;100.00;99742.67;5180815;55;1138836;-74
2023/04/15 00:48:14;;;;;;;12.10;7.57;;;;;;;10.34;100.00;99747.20;5116356;56;1140826;-73
2023/04/15 00:53:19;;;;;;;11.13;7.73;;;;;;;10.34;100.00;99737.12;5096595;56;1141037;-73
2023/04/15 00:58:27;;;;;;;12.77;8.73;;;;;;;10.33;100.00;99738.92;5096309;56;1140974;-73
2023/04/15 01:03:33;;;;;;;14.73;8.07;;;;;;;10.27;100.00;99732.02;5117846;55;1141123;-74
2023/04/15 01:08:39;;;;;;;9.73;7.80;;;;;;;10.23;100.00;99729.64;5096582;56;1140942;-75
2023/04/15 01:13:45;;;;;;;11.60;7.80;;;;;;;10.20;100.00;99731.25;5096619;55;1138822;-74
2023/04/15 01:18:51;;;;;;;14.07;8.57;;;;;;;10.21;100.00;99721.52;5097151;56;1140924;-75
2023/04/15 01:23:57;;;;;;;15.85;9.15;;;;;;;10.21;100.00;99730.77;5116691;56;1140897;-73
2023/04/15 01:29:03;;;;;;;12.55;7.75;;;;;;;10.25;100.00;99738.75;5069069;56;1140793;-74
2023/04/15 01:34:09;;;;;;;13.20;8.13;;;;;;;10.21;100.00;99738.22;5069581;56;1140934;-73
2023/04/15 01:39:15;;;;;;;13.13;7.60;;;;;;;10.16;100.00;99732.94;5116646;55;1140948;-74
2023/04/15 01:44:21;;;;;;;12.63;8.57;;;;;;;10.17;100.00;99742.55;5120702;55;1140883;-73
2023/04/15 01:49:27;;;;;;;10.80;7.13;;;;;;;10.17;100.00;99739.90;5182745;55;1140968;-74
2023/04/15 01:54:32;;;;;;;11.57;8.40;;;;;;;10.14;100.00;99739.68;5203227;55;1140828;-74
2023/04/15 01:59:38;;;;;;;11.22;7.40;;;;;;;10.06;100.00;99742.66;5185250;55;1140900;-74
2023/04/15 02:04:44;;;;;;;12.23;9.17;;;;;;;10.05;100.00;99751.07;5142759;55;1140882;-75
2023/04/15 02:09:49;;;;;;;14.70;8.77;;;;;;;10.00;100.00;99742.70;5115353;55;1141170;-73
2023/04/15 02:14:55;;;;;;;12.67;9.30;;;;;;;9.99;100.00;99740.19;5213800;55;1141114;-74
2023/04/15 02:20:01;;;;;;;14.45;9.58;;;;;;;9.97;100.00;99748.25;5193591;55;1139211;-74
2023/04/15 02:25:08;;;;;;;13.85;9.53;;;;;;;9.94;100.00;99747.19;5193553;55;1139048;-73
2023/04/15 02:30:13;;;;;;;12.07;9.10;;;;;;;9.90;100.00;99741.00;5213825;55;1138818;-74
2023/04/15 02:35:19;;;;;;;11.57;7.80;;;;;;;9.90;100.00;99743.16;5193317;55;1138849;-74
2023/04/15 02:40:25;;;;;;;13.37;10.20;;;;;;;9.89;100.00;99740.17;5193046;55;1139048;-73
2023/04/15 02:45:31;;;;;;;13.37;9.20;;;;;;;9.85;100.00;99742.23;5168504;55;1140964;-75
2023/04/15 02:50:39;;;;;;;11.53;9.30;;;;;;;9.87;100.00;99740.78;5106685;55;1138994;-74
2023/04/15 02:55:46;;;;;;;13.00;9.40;;;;;;;9.85;100.00;99745.36;5096527;56;1139070;-74
2023/04/15 03:00:52;;;;;;;14.26;9.48;;;;;;;9.86;100.00;99737.78;5084247;56;1138929;-75
2023/04/15 03:05:58;;;;;;;9.73;7.97;;;;;;;9.83;100.00;99730.96;5054498;56;1138908;-74
2023/04/15 03:11:04;;;;;;;13.33;9.93;;;;;;;9.83;100.00;99738.88;5193470;55;1136874;-75
2023/04/15 03:16:10;;;;;;;13.90;9.40;;;;;;;9.87;100.00;99739.46;5193418;55;1138857;-74
2023/04/15 03:21:16;;;;;;;12.83;8.70;;;;;;;9.87;100.00;99747.39;5213939;55;1139080;-75
2023/04/15 03:26:31;;;;;;;11.87;7.97;;;;;;;9.91;100.00;99750.13;5193021;55;1139051;-75
2023/04/15 03:31:38;;;;;;;13.03;8.63;;;;;;;9.90;100.00;99744.48;5192548;55;1139036;-74
2023/04/15 03:36:44;;;;;;;12.10;9.53;;;;;;;9.90;100.00;99747.13;5213654;55;1138943;-73
2023/04/15 03:41:50;;;;;;;12.20;9.13;;;;;;;9.90;100.00;99750.25;5178240;55;1138819;-74
2023/04/15 03:46:55;;;;;;;10.72;7.95;;;;;;;9.93;100.00;99751.31;5125810;55;1138977;-75
2023/04/15 03:52:01;;;;;;;12.97;8.97;;;;;;;9.96;100.00;99750.53;5154286;55;1139060;-74
2023/04/15 03:57:06;;;;;;;11.15;8.25;;;;;;;9.96;100.00;99752.34;5134812;55;1138882;-74
2023/04/15 04:02:12;;;;;;;13.67;8.13;;;;;;;9.96;100.00;99750.53;5114740;55;1139126;-73
2023/04/15 04:07:19;;;;;;;12.37;9.10;;;;;;;9.96;100.00;99755.81;5194047;55;1138813;-75
2023/04/15 04:12:24;;;;;;;15.83;9.47;;;;;;;9.95;100.00;99764.70;5080530;56;1138884;-73
2023/04/15 04:17:30;;;;;;;14.47;8.73;;;;;;;9.90;100.00;99765.61;5086736;55;1138908;-75
2023/04/15 04:22:40;;;;;;;10.17;8.13;;;;;;;9.89;100.00;99767.91;5106759;55;1138958;-74
2023/04/15 04:27:46;;;;;;;11.97;8.90;;;;;;;9.83;100.00;99773.70;5086501;55;1170347;-74
2023/04/15 04:32:51;;;;;;;10.93;9.07;;;;;;;9.76;100.00;99774.73;5087106;55;1138761;-75
2023/04/15 04:37:57;;;;;;;11.97;9.33;;;;;;;9.72;100.00;99777.28;5087050;55;1138979;-74
2023/04/15 04:43:02;;;;;;;11.80;8.85;;;;;;;9.65;100.00;99777.44;5105721;55;1138802;-75
2023/04/15 04:48:09;;;;;;;14.20;9.65;;;;;;;9.62;100.00;99776.88;5003398;57;1138886;-76
2023/04/15 04:53:16;;;;;;;18.83;9.60;;;;;;;9.61;100.00;99773.41;5003597;57;1138736;-75
2023/04/15 04:58:21;;;;;;;14.68;9.83;;;;;;;9.57;100.00;99775.11;5088597;56;1138881;-76
2023/04/15 05:03:27;;;;;;;12.67;9.10;;;;;;;9.56;100.00;99783.51;5119202;56;1138999;-75
2023/04/15 05:08:32;;;;;;;9.70;7.97;;;;;;;9.51;100.00;99781.25;5121471;55;1139025;-74
2023/04/15 05:13:38;;;;;;;14.53;10.40;;;;;;;9.52;100.00;99783.41;5172221;55;1136744;-73
2023/04/15 05:18:44;;;;;;;12.45;8.28;;;;;;;9.46;100.00;99787.42;5032065;56;1140921;-76
2023/04/15 05:23:50;;;;;;;12.23;9.67;;;;;;;9.42;100.00;99790.44;5172539;55;1138869;-74
2023/04/15 05:28:55;;;;;;;10.43;7.83;;;;;;;9.37;100.00;99785.55;5173054;55;1138876;-73
2023/04/15 05:34:01;;;;;;;13.05;9.60;;;;;;;9.39;100.00;99790.70;5193160;55;1139102;-75
2023/04/15 05:39:07;;;;;;;9.85;8.45;;;;;;;9.42;100.00;99787.33;5172492;55;1138788;-74
2023/04/15 05:44:12;;;;;;;11.85;8.68;;;;;;;9.44;100.00;99790.67;5154150;55;1136779;-73
2023/04/15 05:49:18;;;;;;;16.93;10.20;;;;;;;9.44;100.00;99788.03;5086867;56;1138736;-74
2023/04/15 05:54:23;;;;;;;14.50;9.97;;;;;;;9.43;100.00;99789.48;5067735;56;1140859;-75
2023/04/15 05:59:29;;;;;;;12.17;8.63;;;;;;;9.44;100.00;99786.72;5070241;56;1138836;-74
2023/04/15 06:04:35;;;;;;;14.00;10.37;;;;;;;9.48;100.00;99792.55;5087099;56;1139037;-75
2023/04/15 06:09:41;;;;;;;14.23;10.60;;;;;;;9.50;100.00;99795.89;5144490;55;1141183;-75
2023/04/15 06:14:46;;;;;;;14.03;10.60;;;;;;;9.56;100.00;99799.83;5172201;55;1141137;-75
2023/04/15 06:19:57;;;;;;;15.72;11.12;;;;;;;9.58;100.00;99790.82;5169040;55;1141165;-75
2023/04/15 06:24:59;;;;;;;14.53;10.17;;;;;;;9.60;100.00;99800.77;5191942;55;1140885;-75
2023/04/15 06:30:06;;;;;;;15.32;9.92;;;;;;;9.65;100.00;99806.48;5159485;55;1140981;-74
2023/04/15 06:35:12;;;;;;;15.20;10.90;;;;;;;9.69;100.00;99809.70;5176044;55;1138857;-74
2023/04/15 06:40:17;;;;;;;13.98;11.22;;;;;;;9.75;100.00;99813.98;5178251;55;1140936;-76
2023/04/15 06:45:23;;;;;;;15.67;12.17;;;;;;;9.78;100.00;99810.22;5157877;55;1141079;-75
2023/04/15 06:50:28;;;;;;;13.93;10.00;;;;;;;9.76;100.00;99813.50;5125741;56;1141172;-74
2023/04/15 06:55:34;;;;;;;14.80;9.93;;;;;;;9.79;100.00;99815.86;5059223;56;1140797;-75
2023/04/15 07:00:40;;;;;;;12.67;9.93;;;;;;;9.80;100.00;99822.81;5125231;56;1138789;-75
2023/04/15 07:05:45;;;;;;;11.70;8.93;;;;;;;9.78;100.00;99819.46;5041099;56;1138749;-74
2023/04/15 07:10:51;;;;;;;13.03;10.80;;;;;;;9.81;100.00;99828.45;5028882;56;1138806;-74
2023/04/15 07:15:57;;;;;;;10.53;8.88;;;;;;;9.77;100.00;99837.62;4993574;56;1141014;-75
2023/04/15 07:21:03;;;;;;;18.07;11.38;;;;;;;9.72;100.00;99838.48;5085178;56;1138931;-74
2023/04/15 07:26:10;;;;;;;8.43;7.17;;;;;;;9.69;100.00;99842.22;5086250;56;1141000;-75
2023/04/15 07:31:16;;;;;;;6.42;5.83;;;;;;;9.68;100.00;99841.87;5106586;56;1136855;-74
2023/04/15 07:36:22;;;;;;;6.40;5.80;;;;;;;9.68;100.00;99844.51;5086572;56;1136733;-74
2023/04/15 07:41:27;;;;;;;6.60;6.00;;;;;;;9.70;100.00;99846.54;5086626;56;1136741;-76
2023/04/15 07:46:33;;;;;;;7.23;6.37;;;;;;;9.75;100.00;99857.55;5106394;56;1136881;-74
2023/04/15 07:51:39;;;;;;;6.80;5.53;;;;;;;9.81;100.00;99845.62;5084271;56;1136674;-73
2023/04/15 07:56:44;;;;;;;12.63;8.03;;;;;;;9.84;100.00;99851.97;5084574;56;1136746;-75
2023/04/15 08:01:51;;;;;;;6.33;5.03;;;;;;;9.85;100.00;99856.28;5072619;56;1138948;-73
2023/04/15 08:06:56;;;;;;;5.93;5.17;;;;;;;9.87;100.00;99857.83;5052115;56;1136630;-74
2023/04/15 08:12:02;;;;;;;8.08;5.95;;;;;;;9.93;100.00;99864.89;5051074;55;1136891;-75
2023/04/15 08:17:08;;;;;;;10.88;7.22;;;;;;;9.96;100.00;99862.80;4990382;57;1136782;-76
2023/04/15 08:22:14;;;;;;;11.05;7.58;;;;;;;9.98;100.00;99876.72;5092580;56;1138993;-79
2023/04/15 08:27:20;;;;;;;10.57;7.77;;;;;;;9.98;100.00;99874.08;5120166;55;1138931;-74
2023/04/15 08:32:26;;;;;;;9.60;6.73;;;;;;;9.96;100.00;99866.77;5096522;56;1138825;-75
2023/04/15 08:37:31;;;;;;;6.80;5.80;;;;;;;10.00;100.00;99880.07;4970626;58;1136760;-74
2023/04/15 08:42:44;;;;;;;6.97;5.87;;;;;;;9.98;100.00;99879.36;5032903;57;1138865;-74
2023/04/15 08:47:52;;;;;;;8.87;7.10;;;;;;;9.98;100.00;99879.36;5115343;56;1136689;-73
2023/04/15 08:52:59;;;;;;;9.38;6.40;;;;;;;10.05;100.00;99888.45;5117353;56;1137156;-75
2023/04/15 08:58:06;;;;;;;6.50;5.42;;;;;;;10.06;100.00;99890.61;5080162;56;1139076;-73
2023/04/15 09:03:12;;;;;;;6.37;5.50;;;;;;;10.09;100.00;99895.13;4985476;56;1138952;-78
2023/04/15 09:08:18;;;;;;;10.87;7.50;;;;;;;10.11;100.00;99887.06;4934850;56;1138960;-75
2023/04/15 09:13:24;;;;;;;7.27;4.80;;;;;;;10.15;100.00;99883.20;5021564;56;1140916;-74
2023/04/15 09:18:32;;;;;;;7.03;5.70;;;;;;;10.20;100.00;99899.06;4956115;57;1138814;-75
2023/04/15 09:23:41;;;;;;;7.27;6.00;;;;;;;10.27;100.00;99895.87;4962977;57;1138862;-73
2023/04/15 09:28:46;;;;;;;12.63;10.10;;;;;;;10.31;100.00;99899.94;4982083;57;1139003;-74
2023/04/15 09:33:57;;;;;;;24.83;20.70;;;;;;;10.32;100.00;99901.61;4907797;57;1143029;-74
2023/04/15 09:39:03;;;;;;;13.93;11.23;;;;;;;10.36;100.00;99899.89;4938065;57;1143042;-75
2023/04/15 09:44:26;;;;;;;11.83;9.48;;;;;;;10.42;100.00;99902.47;4974459;57;1143371;-76
2023/04/15 09:49:32;;;;;;;11.37;9.83;;;;;;;10.49;100.00;99903.14;4933843;57;1140986;-74
2023/04/15 09:54:39;;;;;;;15.50;13.93;;;;;;;10.57;100.00;99915.69;4928045;57;1140844;-74
2023/04/15 09:59:45;;;;;;;19.30;14.33;;;;;;;10.59;100.00;99916.39;4947156;58;1143113;-74
2023/04/15 10:04:52;;;;;;;10.13;8.77;;;;;;;10.61;100.00;99917.58;4977544;56;1142992;-73
2023/04/15 10:10:01;;;;;;;30.45;19.40;;;;;;;10.70;100.00;99914.95;4985212;56;1140938;-74
2023/04/15 10:15:10;;;;;;;18.67;13.77;;;;;;;10.77;100.00;99920.56;4952956;57;1143196;-73
2023/04/15 10:20:18;;;;;;;13.30;8.90;;;;;;;10.73;100.00;99912.05;4983620;57;1143265;-75
2023/04/15 10:25:25;;;;;;;38.53;21.00;;;;;;;10.75;100.00;99922.50;5005207;57;1140957;-75
2023/04/15 10:30:32;;;;;;;171.43;75.57;;;;;;;10.72;100.00;99928.89;4946353;57;1143032;-74
2023/04/15 10:35:39;;;;;;;16.97;13.10;;;;;;;10.70;100.00;99933.95;4983967;57;1145194;-74
2023/04/15 10:40:45;;;;;;;11.77;9.47;;;;;;;10.70;100.00;99932.63;5095014;56;1142916;-74
2023/04/15 10:45:51;;;;;;;10.57;7.33;;;;;;;10.70;100.00;99936.59;5092223;56;1141137;-74
2023/04/15 10:51:04;;;;;;;8.10;6.70;;;;;;;10.71;100.00;99932.98;5077927;55;1141034;-73
2023/04/15 10:56:10;;;;;;;;;;;;;;;10.76;100.00;99939.56;4927311;57;1139031;-73
2023/04/15 11:01:16;;;;;;;164.45;62.08;;;;;;;10.79;100.00;99931.36;4965124;58;976219;-74
2023/04/15 11:06:21;;;;;;;78.83;36.63;;;;;;;10.83;100.00;99942.03;5034618;56;1143030;-74
2023/04/15 11:12:07;;;;;;;57.83;26.60;;;;;;;10.86;100.00;99940.42;4902989;58;1143268;-74
2023/04/15 11:17:12;;;;;;;36.20;21.12;;;;;;;10.88;100.00;99940.28;4908371;57;1143120;-73
2023/04/15 11:22:18;;;;;;;51.67;39.60;;;;;;;10.95;100.00;99940.11;5009463;57;1143195;-73
2023/04/15 11:27:25;;;;;;;13.73;12.00;;;;;;;11.03;100.00;99950.00;4969855;58;1143003;-76
2023/04/15 11:32:30;;;;;;;10.07;8.57;;;;;;;11.08;100.00;99950.44;4960388;57;1143127;-74
2023/04/15 11:37:36;;;;;;;7.83;5.73;;;;;;;11.07;100.00;99957.55;5182168;55;1140822;-73
2023/04/15 11:42:41;;;;;;;5.20;4.70;;;;;;;11.10;100.00;99953.80;5202869;55;1139021;-74
2023/04/15 11:47:47;;;;;;;9.10;8.20;;;;;;;11.13;100.00;99956.17;5099265;55;1138947;-74
2023/04/15 11:53:02;;;;;;;7.63;6.30;;;;;;;11.17;100.00;99958.88;5096466;55;1139049;-74
2023/04/15 11:58:23;;;;;;;6.53;4.83;;;;;;;11.23;100.00;99963.63;5020270;56;1138917;-75
2023/04/15 12:03:46;;;;;;;6.57;5.57;;;;;;;11.22;100.00;99961.95;5072878;56;1138792;-74
2023/04/15 12:09:14;;;;;;;7.40;5.20;;;;;;;11.21;100.00;99970.87;4995614;57;1138788;-75
2023/04/15 12:14:29;;;;;;;10.70;7.03;;;;;;;11.18;100.00;99969.81;5021048;56;1139014;-75
2023/04/15 12:19:42;;;;;;;4.43;3.67;;;;;;;11.17;100.00;99969.46;5116213;55;1141082;-75
2023/04/15 12:24:48;;;;;;;5.65;4.17;;;;;;;11.09;100.00;99981.23;5097150;56;1139024;-76
2023/04/15 12:30:06;;;;;;;6.13;5.13;;;;;;;11.05;100.00;99982.46;5105964;55;1139105;-76
2023/04/15 12:35:12;;;;;;;3.57;3.27;;;;;;;11.05;100.00;99994.37;5131470;55;1138920;-71
2023/04/15 12:40:18;;;;;;;3.20;2.90;;;;;;;11.02;100.00;99995.95;5093423;55;1138872;-72
2023/04/15 12:45:23;;;;;;;4.53;2.90;;;;;;;11.04;100.00;100000.63;5122994;55;1138882;-77
2023/04/15 12:50:29;;;;;;;5.90;4.73;;;;;;;11.08;100.00;100003.37;4979506;57;1140992;-74
2023/04/15 12:55:34;;;;;;;10.47;9.37;;;;;;;11.09;100.00;100010.34;5100596;55;1140873;-75
2023/04/15 13:00:40;;;;;;;6.50;5.63;;;;;;;11.06;100.00;100014.09;5141766;55;1142964;-69
2023/04/15 13:05:45;;;;;;;10.47;8.83;;;;;;;11.12;100.00;100015.37;5052288;57;1141006;-70
2023/04/15 13:10:51;;;;;;;5.80;5.00;;;;;;;11.16;100.00;100012.30;5008764;57;1143055;-69
2023/04/15 13:15:57;;;;;;;10.08;6.33;;;;;;;11.18;100.00;100020.94;5032773;56;1141020;-69
2023/04/15 13:21:06;;;;;;;7.76;5.42;;;;;;;11.09;100.00;100024.41;5053425;57;1143169;-69
2023/04/15 13:26:11;;;;;;;9.17;6.83;;;;;;;11.02;100.00;100026.39;5134992;55;1140908;-75
2023/04/15 13:31:17;;;;;;;11.27;6.57;;;;;;;11.02;100.00;100031.68;5065451;56;1141127;-74
2023/04/15 13:36:22;;;;;;;9.10;6.77;;;;;;;11.03;100.00;100030.70;5052201;56;1143109;-75
2023/04/15 13:41:28;;;;;;;7.03;6.20;;;;;;;11.01;100.00;100034.81;5069243;56;1140875;-76
2023/04/15 13:46:34;;;;;;;7.97;7.17;;;;;;;11.02;100.00;100039.13;5032169;57;1140860;-75
2023/04/15 13:51:39;;;;;;;10.40;7.07;;;;;;;11.01;100.00;100040.59;5051717;56;1141339;-75
2023/04/15 13:56:45;;;;;;;9.00;7.17;;;;;;;10.96;100.00;100045.45;5017421;56;1143041;-76
2023/04/15 14:01:51;;;;;;;10.70;8.03;;;;;;;10.97;100.00;100045.81;5118863;56;1140914;-75
2023/04/15 14:06:57;;;;;;;8.73;7.90;;;;;;;11.01;100.00;100044.06;5032156;56;1143026;-74
2023/04/15 14:12:03;;;;;;;12.27;8.17;;;;;;;11.03;100.00;100050.07;5051891;56;1140942;-76
2023/04/15 14:17:09;;;;;;;10.78;6.78;;;;;;;11.03;100.00;100047.91;5032290;56;1142999;-76
2023/04/15 14:22:15;;;;;;;9.55;7.42;;;;;;;11.02;100.00;100051.52;5032300;56;1143013;-76
2023/04/15 14:27:21;;;;;;;14.73;6.78;;;;;;;11.08;100.00;100053.66;5052152;57;1141342;-75
2023/04/15 14:32:27;;;;;;;7.00;6.20;;;;;;;11.11;100.00;100053.39;5116418;56;1143006;-74
2023/04/15 14:37:33;;;;;;;8.67;5.80;;;;;;;11.12;100.00;100054.58;5032109;56;1140994;-76
2023/04/15 14:42:38;;;;;;;9.57;5.63;;;;;;;11.15;100.00;100065.39;5051945;56;1140944;-74
2023/04/15 14:47:44;;;;;;;7.33;4.67;;;;;;;11.20;100.00;100059.19;5032474;56;1140863;-75
2023/04/15 14:52:49;;;;;;;9.80;6.83;;;;;;;11.20;100.00;100074.59;4982985;57;1140943;-76
2023/04/15 14:57:55;;;;;;;10.43;7.17;;;;;;;11.23;100.00;100074.33;5119739;55;1141078;-75
2023/04/15 15:03:01;;;;;;;6.87;5.90;;;;;;;11.25;100.00;100080.81;5128932;54;1143224;-74
2023/04/15 15:08:08;;;;;;;6.77;5.53;;;;;;;11.24;100.00;100076.48;5099297;55;1147398;-76
2023/04/15 15:13:14;;;;;;;5.30;4.67;;;;;;;11.22;100.00;100079.27;5121954;55;1141081;-77
2023/04/15 15:18:20;;;;;;;6.47;5.85;;;;;;;11.24;100.00;100087.91;5202698;55;1140921;-74
2023/04/15 15:23:25;;;;;;;6.87;5.37;;;;;;;11.25;100.00;100100.19;5115270;56;1140999;-76
2023/04/15 15:28:31;;;;;;;5.93;5.23;;;;;;;11.24;100.00;100102.48;5116204;56;1141145;-75
2023/04/15 15:33:36;;;;;;;8.00;5.33;;;;;;;11.20;100.00;100107.67;5124607;56;1140985;-75
2023/04/15 15:38:42;;;;;;;6.40;5.67;;;;;;;11.19;100.00;100103.34;5116556;56;1140969;-74
2023/04/15 15:43:48;;;;;;;12.30;7.90;;;;;;;11.23;100.00;100104.77;5074073;56;1140905;-76
2023/04/15 15:48:54;;;;;;;16.60;11.28;;;;;;;11.29;100.00;100117.97;5167338;55;1142974;-73
2023/04/15 15:53:59;;;;;;;18.25;10.18;;;;;;;11.25;100.00;100123.17;5196807;55;1145063;-76
2023/04/15 15:59:05;;;;;;;17.67;11.13;;;;;;;11.23;100.00;100129.08;5032116;56;1145120;-76
2023/04/15 16:04:49;;;;;;;7.10;5.37;;;;;;;11.22;100.00;100132.20;5109022;56;1145010;-75
2023/04/15 16:09:55;;;;;;;11.85;7.08;;;;;;;11.18;100.00;100136.08;5033132;56;1141062;-76
2023/04/15 16:15:00;;;;;;;11.00;6.90;;;;;;;11.16;100.00;100138.50;5147150;55;1143027;-76
2023/04/15 16:20:09;;;;;;;7.20;5.88;;;;;;;11.16;100.00;100143.80;5113504;56;1143201;-75
2023/04/15 16:25:14;;;;;;;12.07;6.87;;;;;;;11.11;100.00;100148.19;5017678;57;1140917;-74
2023/04/15 16:30:20;;;;;;;9.53;5.90;;;;;;;11.15;100.00;100142.15;4970148;57;1142982;-75
2023/04/15 16:35:26;;;;;;;8.70;5.40;;;;;;;11.15;100.00;100153.55;4984546;57;1140950;-74
2023/04/15 16:40:31;;;;;;;14.93;6.60;;;;;;;11.11;100.00;100154.80;5117061;56;1140968;-74
2023/04/15 16:45:37;;;;;;;12.53;7.17;;;;;;;11.18;100.00;100155.94;5041338;57;1143085;-74
2023/04/15 16:50:43;;;;;;;13.70;7.20;;;;;;;11.22;100.00;100159.16;5108458;56;1143103;-76
2023/04/15 16:55:48;;;;;;;12.23;6.28;;;;;;;11.20;100.00;100168.56;5096681;55;1143072;-76
2023/04/15 17:00:54;;;;;;;11.73;6.87;;;;;;;11.18;100.00;100174.46;5096578;56;1143029;-75
2023/04/15 17:06:00;;;;;;;10.50;6.33;;;;;;;11.14;100.00;100181.02;5190392;55;1143158;-74
2023/04/15 17:11:05;;;;;;;11.07;5.30;;;;;;;11.10;100.00;100184.88;5150199;55;1143016;-77
2023/04/15 17:16:11;;;;;;;7.47;5.73;;;;;;;11.10;100.00;100186.69;5139412;55;1143027;-76
2023/04/15 17:21:17;;;;;;;10.97;6.60;;;;;;;11.12;100.00;100189.56;5178770;55;1141031;-74
2023/04/15 17:26:23;;;;;;;11.48;7.00;;;;;;;11.16;100.00;100196.73;5096214;56;1143111;-74
2023/04/15 17:31:30;;;;;;;15.20;8.23;;;;;;;11.21;100.00;100202.00;5102354;55;1143173;-74
2023/04/15 17:36:35;;;;;;;14.13;8.23;;;;;;;11.18;100.00;100206.23;5084977;56;1142974;-73
2023/04/15 17:41:41;;;;;;;12.37;8.00;;;;;;;11.11;100.00;100213.03;4993795;57;1143065;-74
2023/04/15 17:46:47;;;;;;;12.83;8.87;;;;;;;11.08;100.00;100224.34;5006029;55;1143030;-75
2023/04/15 17:51:54;;;;;;;25.85;15.90;;;;;;;11.08;100.00;100217.73;5027341;56;1143072;-76
2023/04/15 17:57:01;;;;;;;16.03;9.40;;;;;;;11.03;100.00;100235.31;5051087;57;1145102;-74
2023/04/15 18:02:07;;;;;;;47.87;19.83;;;;;;;10.95;100.00;100227.19;5103145;55;1142990;-74
2023/04/15 18:07:14;;;;;;;37.27;17.13;;;;;;;10.89;100.00;100230.34;5174430;55;1145086;-74
2023/04/15 18:12:19;;;;;;;21.42;11.88;;;;;;;10.85;100.00;100247.42;5137398;56;1145098;-74
2023/04/15 18:17:25;;;;;;;46.40;21.80;;;;;;;10.81;100.00;100260.09;5027539;57;1145183;-74
2023/04/15 18:22:31;;;;;;;27.70;14.63;;;;;;;10.81;100.00;100267.19;5022131;57;1145265;-75
2023/04/15 18:27:38;;;;;;;57.13;28.23;;;;;;;10.79;100.00;100273.92;5046925;57;1145111;-75
2023/04/15 18:32:43;;;;;;;29.37;13.43;;;;;;;10.80;100.00;100280.90;5038851;56;1145161;-76
2023/04/15 18:37:49;;;;;;;88.27;43.47;;;;;;;10.86;100.00;100286.14;4950052;57;1145085;-76
2023/04/15 18:42:55;;;;;;;63.20;25.60;;;;;;;10.93;100.00;100284.69;5096578;56;1145259;-76
2023/04/15 18:48:01;;;;;;;60.20;25.63;;;;;;;10.97;100.00;100290.58;5136043;55;1145231;-76
2023/04/15 18:53:07;;;;;;;41.43;14.20;;;;;;;10.98;100.00;100293.09;5144479;55;1145167;-76
2023/04/15 18:58:13;;;;;;;12.13;7.13;;;;;;;10.94;100.00;100289.02;5095790;56;1145168;-76
2023/04/15 19:03:18;;;;;;;12.25;6.60;;;;;;;10.87;100.00;100294.44;5170813;55;1143171;-76
2023/04/15 19:08:24;;;;;;;87.17;37.53;;;;;;;10.75;100.00;100298.94;5182069;55;1143255;-76
2023/04/15 19:13:30;;;;;;;137.43;51.10;;;;;;;10.70;100.00;100304.23;5031582;56;1145196;-76
2023/04/15 19:18:35;;;;;;;41.47;20.33;;;;;;;10.73;100.00;100311.93;5125277;56;1147161;-76
2023/04/15 19:23:46;;;;;;;141.83;49.67;;;;;;;10.74;100.00;100307.00;5063739;56;1145225;-76
2023/04/15 19:28:57;;;;;;;117.23;39.33;;;;;;;10.80;100.00;100311.80;5064858;56;1147307;-76
2023/04/15 19:33:59;;;;;;;295.50;101.23;;;;;;;10.81;100.00;100313.00;4955962;57;1147329;-77
2023/04/15 19:39:04;;;;;;;108.83;44.20;;;;;;;10.82;100.00;100317.33;4997578;57;1149507;-76
2023/04/15 19:44:12;;;;;;;13.80;4.72;;;;;;;10.78;100.00;100319.86;4927387;58;1147200;-77
2023/04/15 19:49:18;;;;;;;23.73;9.73;;;;;;;10.65;100.00;100319.66;4900495;57;1143103;-78
2023/04/15 19:54:27;;;;;;;9.28;3.90;;;;;;;10.52;100.00;100326.43;4954215;56;1143125;-79
2023/04/15 19:59:32;;;;;;;8.97;5.70;;;;;;;10.45;100.00;100330.52;4979192;57;1140885;-78
2023/04/15 20:04:38;;;;;;;9.37;5.70;;;;;;;10.46;100.00;100321.14;4943809;58;1140960;-78
2023/04/15 20:09:44;;;;;;;10.23;6.67;;;;;;;10.52;100.00;100318.50;4999435;57;1141084;-77
2023/04/15 20:14:49;;;;;;;30.25;13.72;;;;;;;10.59;100.00;100328.92;4899431;57;1142998;-80
2023/04/15 20:19:55;;;;;;;49.97;24.23;;;;;;;10.55;100.00;100340.70;4899370;57;1145435;-78
2023/04/15 20:25:02;;;;;;;28.50;14.77;;;;;;;10.44;100.00;100348.66;4946420;57;1145065;-79
2023/04/15 20:30:08;;;;;;;434.30;186.50;;;;;;;10.44;100.00;100348.66;4970669;58;1145307;-77
2023/04/15 20:35:14;;;;;;;201.17;82.10;;;;;;;10.40;100.00;100348.05;4948396;57;1149196;-78
2023/04/15 20:40:20;;;;;;;30.00;14.68;;;;;;;10.35;100.00;100339.67;4933033;57;1147418;-77
2023/04/15 20:45:26;;;;;;;22.25;12.30;;;;;;;10.30;100.00;100347.12;4944165;57;1145319;-78
2023/04/15 20:50:32;;;;;;;38.77;21.20;;;;;;;10.22;100.00;100346.89;4975689;56;1145232;-79
2023/04/15 20:55:38;;;;;;;38.93;20.30;;;;;;;10.17;100.00;100355.63;5028161;57;1145060;-79
2023/04/15 21:00:44;;;;;;;29.07;16.63;;;;;;;10.17;100.00;100356.95;4974089;57;1145156;-78
2023/04/15 21:05:50;;;;;;;56.93;26.50;;;;;;;10.18;100.00;100357.30;4939018;57;1145131;-77
2023/04/15 21:10:57;;;;;;;109.50;42.83;;;;;;;10.16;100.00;100375.92;4932727;57;1145216;-78
2023/04/15 21:16:03;;;;;;;190.97;69.57;;;;;;;10.16;100.00;100375.92;4951793;56;1147233;-79
2023/04/15 21:21:08;;;;;;;78.37;31.87;;;;;;;10.18;100.00;100379.77;4979479;56;1147200;-78
2023/04/15 21:26:14;;;;;;;53.73;21.50;;;;;;;10.20;100.00;100384.49;4941209;57;1145250;-76
2023/04/15 21:31:20;;;;;;;95.47;33.13;;;;;;;10.19;100.00;100390.73;4960713;57;1145269;-78
2023/04/15 21:36:26;;;;;;;119.43;43.77;;;;;;;10.17;100.00;100398.75;4910510;58;1145144;-79
2023/04/15 21:41:32;;;;;;;131.13;41.97;;;;;;;10.14;100.00;100408.71;4963689;57;1147235;-77
2023/04/15 21:46:38;;;;;;;40.90;15.47;;;;;;;10.17;100.00;100405.84;5024100;56;1147404;-77
2023/04/15 21:51:45;;;;;;;14.07;8.50;;;;;;;10.21;100.00;100404.67;5047816;56;1145338;-77
2023/04/15 21:56:50;;;;;;;29.27;16.03;;;;;;;10.19;100.00;100411.40;5012287;57;1143259;-78
2023/04/15 22:01:56;;;;;;;16.07;9.07;;;;;;;10.23;100.00;100422.07;5034157;56;1145458;-79
2023/04/15 22:07:01;;;;;;;50.47;22.23;;;;;;;10.23;100.00;100428.34;5032263;56;1142985;-78
2023/04/15 22:12:07;;;;;;;71.77;31.53;;;;;;;10.27;100.00;100433.25;5012283;57;1145068;-79
2023/04/15 22:17:14;;;;;;;57.90;28.62;;;;;;;10.26;100.00;100449.23;5095440;56;1145039;-78
2023/04/15 22:22:20;;;;;;;34.78;18.07;;;;;;;10.26;100.00;100447.91;5187446;55;1145117;-77
2023/04/15 22:27:26;;;;;;;28.02;15.80;;;;;;;10.26;100.00;100458.48;5161748;55;1145216;-78
2023/04/15 22:32:31;;;;;;;20.50;12.20;;;;;;;10.29;100.00;100460.41;5131696;55;1145167;-78
2023/04/15 22:37:37;;;;;;;45.40;23.37;;;;;;;10.29;100.00;100462.22;5155666;55;1145201;-79
2023/04/15 22:42:42;;;;;;;23.17;14.27;;;;;;;10.28;100.00;100469.78;5129147;55;1145103;-77
2023/04/15 22:47:48;;;;;;;21.47;15.10;;;;;;;10.32;100.00;100473.41;5118060;55;1145196;-78
2023/04/15 22:52:54;;;;;;;16.20;10.93;;;;;;;10.38;100.00;100472.09;5123665;55;1145365;-79